Time;durP1;ratioP1;P1;durP2;ratioP2;P2;SDS_P1;SDS_P2;PMS_P1;PMS_P2;Temp;Humidity;BMP_temperature;BMP_pressure;BME280_temperature;BME280_humidity;BME280_pressure;Samples;Min_cycle;Max_cycle;Signal;HPM_P1;HPM_P2
2020/12/11 00:00:37;;;;;;;80.05;39.00;;;;;;;1.64;84.25;100041.78;1777023;78;25722;-77
2020/12/11 00:03:05;;;;;;;78.78;40.12;;;;;;;1.67;84.24;100036.72;1784766;78;25775;-77
2020/12/11 00:05:32;;;;;;;90.25;42.67;;;;;;;1.67;84.17;100047.27;1772605;78;26423;-76
2020/12/11 00:08:00;;;;;;;80.05;41.68;;;;;;;1.68;84.14;100038.36;1740056;78;26716;-77
2020/12/11 00:10:28;;;;;;;81.42;41.05;;;;;;;1.66;84.10;100048.23;1804163;78;26157;-77
2020/12/11 00:12:56;;;;;;;84.90;42.75;;;;;;;1.67;84.16;100040.16;1780716;79;25791;-77
2020/12/11 00:15:23;;;;;;;81.47;41.05;;;;;;;1.69;84.16;100041.36;1777244;79;25880;-76
2020/12/11 00:17:51;;;;;;;84.85;42.13;;;;;;;1.69;84.09;100045.32;1754032;78;25844;-77
2020/12/11 00:20:18;;;;;;;84.25;42.80;;;;;;;1.69;84.16;100040.84;1779710;78;27533;-77
2020/12/11 00:22:45;;;;;;;80.17;39.63;;;;;;;1.71;84.11;100030.97;1795255;78;25858;-77
2020/12/11 00:25:13;;;;;;;82.55;41.63;;;;;;;1.72;84.15;100031.81;1776814;78;26468;-77
2020/12/11 00:27:40;;;;;;;85.87;43.52;;;;;;;1.75;84.11;100029.73;1755457;79;25715;-77
2020/12/11 00:30:07;;;;;;;89.15;43.15;;;;;;;1.77;84.07;100036.19;1776038;80;26064;-77
2020/12/11 00:32:38;;;;;;;85.53;42.58;;;;;;;1.75;84.00;100035.50;1785414;79;26472;-77
2020/12/11 00:35:09;;;;;;;88.60;43.92;;;;;;;1.75;84.01;100038.98;1756524;78;34887;-77
2020/12/11 00:37:36;;;;;;;;;;;;;;;1.77;84.00;100044.95;1780091;78;26129;-77
2020/12/11 00:40:04;;;;;;;78.15;40.23;;;;;;;1.77;84.05;100045.42;1778976;79;25810;-76
2020/12/11 00:42:32;;;;;;;80.60;40.75;;;;;;;1.73;84.01;100051.97;1799676;78;25812;-77
2020/12/11 00:44:59;;;;;;;81.40;41.85;;;;;;;1.74;84.06;100045.22;1735443;80;27540;-77
2020/12/11 00:47:27;;;;;;;86.97;43.10;;;;;;;1.76;84.06;100056.47;1724987;81;25749;-77
2020/12/11 00:49:54;;;;;;;77.12;41.77;;;;;;;1.78;83.98;100051.88;1730341;81;25833;-77
2020/12/11 00:52:22;;;;;;;82.08;41.20;;;;;;;1.78;83.97;100056.31;1749759;81;26487;-77
2020/12/11 00:54:51;;;;;;;74.82;37.30;;;;;;;1.77;83.96;100054.19;1779174;79;26076;-77
2020/12/11 00:57:18;;;;;;;77.55;40.08;;;;;;;1.77;83.92;100050.22;1717968;80;28028;-77
2020/12/11 00:59:46;;;;;;;74.58;39.40;;;;;;;1.78;83.92;100058.95;1772902;79;26418;-77
2020/12/11 01:02:13;;;;;;;71.77;38.50;;;;;;;1.78;83.93;100058.95;1795325;79;26458;-77
2020/12/11 01:04:40;;;;;;;75.28;37.98;;;;;;;1.78;83.96;100049.71;1742082;79;26285;-77
2020/12/11 01:07:08;;;;;;;76.37;39.30;;;;;;;1.80;83.97;100060.96;1773156;79;25811;-77
2020/12/11 01:09:35;;;;;;;75.57;40.70;;;;;;;1.80;83.93;100053.04;1797762;79;26783;-77
2020/12/11 01:12:02;;;;;;;83.78;43.58;;;;;;;1.77;83.89;100055.50;1794997;79;26248;-77
2020/12/11 01:14:30;;;;;;;71.02;35.98;;;;;;;1.78;84.02;100053.19;1735549;79;25777;-77
2020/12/11 01:16:57;;;;;;;72.47;39.80;;;;;;;1.76;83.90;100045.91;1774830;78;25881;-77
2020/12/11 01:19:25;;;;;;;71.30;39.63;;;;;;;1.72;83.90;100037.94;1773968;79;25769;-77
2020/12/11 01:21:52;;;;;;;74.72;38.53;;;;;;;1.73;84.11;100045.38;1794094;79;27721;-77
2020/12/11 01:24:19;;;;;;;74.58;35.92;;;;;;;1.72;83.98;100052.45;1718743;80;25822;-77
2020/12/11 01:26:47;;;;;;;65.95;34.92;;;;;;;1.71;83.97;100048.14;1753969;79;26499;-78
2020/12/11 01:29:14;;;;;;;66.02;35.83;;;;;;;1.70;84.05;100053.56;1773723;79;25810;-77
2020/12/11 01:31:42;;;;;;;68.90;36.93;;;;;;;1.70;84.08;100050.92;1797721;79;25802;-77
2020/12/11 01:34:09;;;;;;;71.12;36.90;;;;;;;1.69;84.10;100049.28;1750414;79;27531;-78
2020/12/11 01:36:37;;;;;;;75.40;36.58;;;;;;;1.70;84.16;100058.37;1783938;79;25817;-78
2020/12/11 01:39:04;;;;;;;75.60;35.25;;;;;;;1.69;84.12;100054.56;1778837;80;25796;-77
2020/12/11 01:41:32;;;;;;;91.45;41.73;;;;;;;1.68;84.13;100044.96;1771883;79;25954;-78
2020/12/11 01:44:09;;;;;;;95.22;41.58;;;;;;;1.69;84.23;100051.92;1733834;79;26404;-78
2020/12/11 01:46:41;;;;;;;88.07;39.70;;;;;;;1.70;84.18;100048.29;1770861;79;27526;-77
2020/12/11 01:49:11;;;;;;;78.75;37.67;;;;;;;1.68;84.16;100050.24;1773509;79;26333;-77
2020/12/11 01:51:38;;;;;;;78.07;35.55;;;;;;;1.65;84.16;100047.39;1794194;79;26064;-78
2020/12/11 01:54:06;;;;;;;73.07;36.28;;;;;;;1.64;84.23;100051.03;1726135;79;25621;-78
2020/12/11 01:56:57;;;;;;;70.22;34.78;;;;;;;1.64;84.26;100048.87;1772190;79;25826;-78
2020/12/11 01:59:39;;;;;;;;;;;;;;;1.67;84.35;100045.95;1768132;80;27755;-78
2020/12/11 02:02:08;;;;;;;65.80;32.17;;;;;;;1.66;84.32;100045.11;1792270;78;26536;-77
2020/12/11 02:04:38;;;;;;;58.65;32.63;;;;;;;1.65;84.40;100037.34;1775240;79;25846;-78
2020/12/11 02:07:06;;;;;;;64.62;32.75;;;;;;;1.63;84.39;100039.27;1784904;79;26975;-79
2020/12/11 02:09:35;;;;;;;59.48;30.88;;;;;;;1.65;84.44;100039.98;1772840;79;26653;-80
2020/12/11 02:12:04;;;;;;;60.75;31.65;;;;;;;1.66;84.46;100037.20;1798035;78;28400;-78
2020/12/11 02:14:32;;;;;;;61.88;32.50;;;;;;;1.67;84.43;100034.88;1774490;79;25808;-78
2020/12/11 02:17:02;;;;;;;60.95;32.15;;;;;;;1.66;84.45;100030.59;1772497;79;25420;-78
2020/12/11 02:19:30;;;;;;;56.98;31.00;;;;;;;1.69;84.53;100037.40;1759795;79;25923;-77
2020/12/11 02:22:04;;;;;;;61.77;32.50;;;;;;;1.72;84.50;100029.17;1771924;79;26254;-77
2020/12/11 02:24:33;;;;;;;57.65;31.87;;;;;;;1.72;84.44;100033.13;1767070;80;27542;-77
2020/12/11 02:27:03;;;;;;;56.63;29.72;;;;;;;1.71;84.49;100028.84;1774858;79;25880;-78
2020/12/11 02:29:30;;;;;;;59.50;31.68;;;;;;;1.70;84.51;100024.53;1691140;83;26460;-78
2020/12/11 02:31:58;;;;;;;61.08;30.50;;;;;;;1.71;84.58;100030.17;1721730;82;26476;-78
2020/12/11 02:34:25;;;;;;;60.30;31.50;;;;;;;1.69;84.53;100028.97;1719274;80;26252;-78
2020/12/11 02:36:52;;;;;;;62.55;32.63;;;;;;;1.73;84.60;100030.85;1722823;80;27280;-77
2020/12/11 02:39:20;;;;;;;57.73;31.35;;;;;;;1.72;84.56;100028.69;1735800;80;25751;-78
2020/12/11 02:41:48;;;;;;;53.23;30.77;;;;;;;1.73;84.56;100033.02;1734192;80;26213;-78
2020/12/11 02:44:16;;;;;;;59.67;29.87;;;;;;;1.74;84.55;100024.10;1723803;80;25712;-78
2020/12/11 02:46:43;;;;;;;59.48;30.55;;;;;;;1.77;84.56;100029.10;1732048;82;26142;-78
2020/12/11 02:49:11;;;;;;;56.53;29.50;;;;;;;1.76;84.48;100026.10;1668587;82;28479;-78
2020/12/11 02:51:38;;;;;;;54.38;29.20;;;;;;;1.79;84.55;100023.67;1740838;80;25909;-78
2020/12/11 02:54:06;;;;;;;49.53;27.85;;;;;;;1.81;84.57;100028.31;1734252;80;25784;-78
2020/12/11 02:56:33;;;;;;;59.58;29.12;;;;;;;1.81;84.50;100027.00;1700683;82;25760;-78
2020/12/11 02:59:01;;;;;;;58.23;29.60;;;;;;;1.83;84.49;100031.64;1750205;81;25769;-78
2020/12/11 03:01:28;;;;;;;58.42;30.08;;;;;;;1.82;84.46;100023.39;1699120;81;28436;-78
2020/12/11 03:03:56;;;;;;;52.98;29.20;;;;;;;1.85;84.53;100025.72;1726500;81;26427;-78
2020/12/11 03:09:04;;;;;;;57.98;29.87;;;;;;;1.94;84.47;100025.70;1836366;77;25657;-78
2020/12/11 03:11:32;;;;;;;62.53;28.85;;;;;;;1.91;84.46;100031.26;1767267;79;25759;-78
2020/12/11 03:13:59;;;;;;;57.80;28.10;;;;;;;1.92;84.42;100028.98;1798236;78;27628;-78
2020/12/11 03:16:26;;;;;;;59.03;28.25;;;;;;;1.90;84.37;100025.66;1738262;80;25843;-78
2020/12/11 03:18:54;;;;;;;60.85;26.97;;;;;;;1.90;84.35;100026.97;1739656;79;26456;-78
2020/12/11 03:21:21;;;;;;;57.80;27.45;;;;;;;1.92;84.39;100024.17;1763262;79;26354;-78
2020/12/11 03:23:49;;;;;;;57.13;29.05;;;;;;;1.94;84.39;100023.54;1766416;79;26464;-78
2020/12/11 03:26:16;;;;;;;58.75;28.40;;;;;;;1.94;84.35;100027.50;1717015;80;28178;-78
2020/12/11 03:28:44;;;;;;;61.00;29.48;;;;;;;1.96;84.39;100024.22;1738679;79;26126;-78
2020/12/11 03:31:11;;;;;;;61.00;28.50;;;;;;;1.97;84.39;100028.03;1736033;79;26543;-78
2020/12/11 03:33:38;;;;;;;56.77;29.27;;;;;;;1.97;84.42;100021.91;1776261;79;25835;-78
2020/12/11 03:36:06;;;;;;;63.90;30.12;;;;;;;1.98;84.37;100023.11;1732905;81;26083;-78
2020/12/11 03:38:33;;;;;;;62.05;29.32;;;;;;;2.01;84.36;100020.66;1738978;79;28345;-78
2020/12/11 03:41:00;;;;;;;64.37;29.18;;;;;;;2.01;84.32;100020.16;1762440;79;25892;-78
2020/12/11 03:43:28;;;;;;;59.95;29.37;;;;;;;2.03;84.34;100023.48;1776593;79;26393;-78
2020/12/11 03:45:55;;;;;;;64.32;30.68;;;;;;;2.04;84.27;100026.95;1681620;79;25993;-78
2020/12/11 03:48:22;;;;;;;59.33;28.45;;;;;;;2.06;84.33;100023.68;1738756;79;26683;-78
2020/12/11 03:50:50;;;;;;;59.25;28.00;;;;;;;2.08;84.27;100030.48;1762956;79;27303;-79
2020/12/11 03:53:17;;;;;;;65.10;27.70;;;;;;;2.10;84.24;100032.48;1761095;79;25700;-78
2020/12/11 03:55:44;;;;;;;64.77;28.50;;;;;;;2.11;84.23;100038.13;1721881;79;25754;-77
2020/12/11 03:58:12;;;;;;;61.45;29.77;;;;;;;2.14;84.22;100043.59;1736929;79;26155;-78
2020/12/11 04:00:39;;;;;;;67.15;29.63;;;;;;;2.17;84.24;100043.30;1724070;79;26002;-78
2020/12/11 04:03:06;;;;;;;65.47;29.65;;;;;;;2.18;84.19;100043.15;1715602;79;28439;-78
2020/12/11 04:05:34;;;;;;;60.88;28.32;;;;;;;2.18;84.13;100041.83;1721799;79;25771;-78
2020/12/11 04:08:01;;;;;;;68.57;29.42;;;;;;;2.19;84.12;100040.02;1737114;79;25898;-78
2020/12/11 04:10:28;;;;;;;67.62;29.98;;;;;;;2.21;84.10;100038.06;1764956;79;25877;-78
2020/12/11 04:12:57;;;;;;;64.50;31.07;;;;;;;2.23;84.13;100038.27;1788828;79;25794;-78
2020/12/11 04:15:24;;;;;;;62.75;29.87;;;;;;;2.25;84.08;100032.34;1736115;79;27528;-77
2020/12/11 04:17:51;;;;;;;59.55;30.30;;;;;;;2.24;83.98;100038.62;1738022;79;25842;-78
2020/12/11 04:20:19;;;;;;;63.75;29.40;;;;;;;2.24;83.94;100036.46;1762052;79;25827;-78
2020/12/11 04:22:46;;;;;;;63.30;28.10;;;;;;;2.23;83.96;100039.59;1737473;79;26257;-78
2020/12/11 04:25:13;;;;;;;67.35;30.88;;;;;;;2.23;83.94;100037.42;1739653;79;26487;-78
2020/12/11 04:27:41;;;;;;;63.08;29.48;;;;;;;2.22;83.88;100041.06;1738075;79;28508;-78
2020/12/11 04:30:08;;;;;;;61.68;29.63;;;;;;;2.22;83.99;100055.08;1761928;79;25835;-78
2020/12/11 04:32:36;;;;;;;62.30;29.30;;;;;;;2.25;83.98;100050.84;1777657;79;25733;-78
2020/12/11 04:35:03;;;;;;;59.48;28.20;;;;;;;2.25;83.94;100043.39;1703649;79;25809;-78
2020/12/11 04:37:30;;;;;;;64.62;30.30;;;;;;;2.25;83.86;100047.36;1736114;79;25869;-77
2020/12/11 04:39:58;;;;;;;66.17;29.48;;;;;;;2.24;83.96;100049.67;1763885;79;27426;-78
2020/12/11 04:42:27;;;;;;;70.12;31.57;;;;;;;2.26;83.92;100047.23;1762419;79;25743;-77
2020/12/11 04:44:54;;;;;;;62.13;28.80;;;;;;;2.24;83.88;100035.14;1724713;79;26088;-78
2020/12/11 04:47:22;;;;;;;68.05;29.57;;;;;;;2.23;83.90;100042.71;1736048;79;26385;-78
2020/12/11 04:49:49;;;;;;;61.92;31.05;;;;;;;2.20;83.90;100046.47;1761305;79;25743;-78
2020/12/11 04:52:20;;;;;;;69.32;30.77;;;;;;;2.20;83.96;100044.34;1788040;79;28529;-78
2020/12/11 04:54:50;;;;;;;71.80;30.85;;;;;;;2.19;83.94;100050.59;1764403;79;26379;-78
2020/12/11 04:57:21;;;;;;;78.33;31.55;;;;;;;2.19;83.98;100047.95;1733425;81;25761;-78
2020/12/11 04:59:51;;;;;;;72.22;31.80;;;;;;;2.16;83.96;100041.66;1708560;81;26395;-78
2020/12/11 05:02:18;;;;;;;78.47;33.70;;;;;;;2.16;84.02;100041.14;1734803;81;25867;-78
2020/12/11 05:04:45;;;;;;;75.40;36.40;;;;;;;2.16;84.01;100045.11;1664912;81;28509;-78
2020/12/11 05:07:13;;;;;;;67.65;33.65;;;;;;;2.15;84.06;100048.75;1715890;81;26425;-78
2020/12/11 05:09:40;;;;;;;71.57;34.88;;;;;;;2.15;84.02;100047.42;1778412;79;25387;-78
2020/12/11 05:12:14;;;;;;;75.78;35.38;;;;;;;2.14;83.98;100050.19;1777863;79;26327;-78
2020/12/11 05:14:41;;;;;;;68.28;33.23;;;;;;;2.13;83.99;100054.66;1712433;79;25879;-78
2020/12/11 05:17:09;;;;;;;67.65;33.13;;;;;;;2.12;83.94;100056.11;1737412;78;27511;-78
2020/12/11 05:19:53;;;;;;;69.72;34.13;;;;;;;2.10;83.97;100054.10;1732538;79;26135;-78
2020/12/11 05:22:23;;;;;;;60.35;28.87;;;;;;;2.11;84.09;100048.70;1777384;79;25365;-78
2020/12/11 05:24:56;;;;;;;59.70;29.95;;;;;;;2.13;84.03;100057.31;1724125;79;25924;-77
2020/12/11 05:30:19;;;;;;;59.50;31.10;;;;;;;2.16;84.02;100058.83;1789725;79;25626;-77
2020/12/11 05:32:51;;;;;;;64.00;31.12;;;;;;;2.10;84.09;100060.70;1729893;81;25783;-77
2020/12/11 05:35:25;;;;;;;62.73;30.45;;;;;;;2.12;84.07;100056.11;1754139;81;27528;-77
2020/12/11 05:38:05;;;;;;;58.85;29.52;;;;;;;2.13;84.04;100061.75;1707326;81;25834;-78
2020/12/11 05:40:37;;;;;;;57.00;29.23;;;;;;;2.14;84.07;100062.08;1686071;81;35742;-78
2020/12/11 05:43:17;;;;;;;61.18;29.75;;;;;;;2.13;84.04;100064.39;1701302;81;25436;-78
2020/12/11 05:45:59;;;;;;;63.17;30.10;;;;;;;2.12;84.03;100062.23;1733786;81;25635;-77
2020/12/11 05:48:39;;;;;;;66.02;31.10;;;;;;;2.10;84.01;100056.27;1688740;81;27629;-77
2020/12/11 05:51:16;;;;;;;78.85;39.92;;;;;;;2.11;84.08;100065.03;1681024;81;25834;-77
2020/12/11 05:53:44;;;;;;;80.03;40.92;;;;;;;2.10;84.04;100064.19;1697956;83;25829;-77
2020/12/11 05:56:11;;;;;;;80.05;39.00;;;;;;;2.09;84.07;100060.38;1700189;81;26493;-77
2020/12/11 05:58:42;;;;;;;79.45;38.65;;;;;;;2.11;84.12;100072.47;1622305;84;26071;-78
2020/12/11 06:01:17;;;;;;;76.02;40.17;;;;;;;2.13;84.08;100067.87;1651558;84;28735;-78
2020/12/11 06:03:46;;;;;;;80.50;39.73;;;;;;;2.13;84.06;100067.03;1656459;84;25809;-77
2020/12/11 06:06:18;;;;;;;74.53;39.92;;;;;;;2.11;84.01;100074.28;1688068;84;25876;-78
2020/12/11 06:08:46;;;;;;;69.47;35.90;;;;;;;2.10;84.04;100076.56;1644989;85;25873;-77
2020/12/11 06:11:22;;;;;;;67.45;34.70;;;;;;;2.09;84.07;100078.88;1645292;84;26027;-78
2020/12/11 06:13:56;;;;;;;68.78;33.40;;;;;;;2.08;84.08;100072.75;1650287;85;27342;-77
2020/12/11 06:16:25;;;;;;;74.15;37.93;;;;;;;2.10;84.18;100075.23;1680678;84;26466;-80
2020/12/11 06:19:02;;;;;;;61.92;32.83;;;;;;;2.09;84.13;100073.11;1636403;84;26518;-80
2020/12/11 06:21:31;;;;;;;67.90;34.00;;;;;;;2.09;84.16;100079.72;1666422;84;25805;-80
2020/12/11 06:23:59;;;;;;;73.00;35.43;;;;;;;2.08;84.09;100077.20;1684020;84;26379;-78
2020/12/11 06:26:26;;;;;;;67.00;33.35;;;;;;;2.05;84.14;100075.67;1636744;85;27555;-78
2020/12/11 06:28:54;;;;;;;70.20;35.30;;;;;;;2.06;84.08;100091.04;1639660;84;26482;-78
2020/12/11 06:31:22;;;;;;;67.53;32.40;;;;;;;2.06;84.22;100081.80;1627269;84;25829;-78
2020/12/11 06:33:56;;;;;;;72.03;34.45;;;;;;;2.05;84.20;100086.23;1659602;84;25902;-78
2020/12/11 06:36:24;;;;;;;79.25;36.30;;;;;;;2.06;84.21;100084.44;1679369;84;25832;-78
2020/12/11 06:38:58;;;;;;;74.20;32.93;;;;;;;2.07;84.27;100088.27;1631439;85;28536;-78
2020/12/11 06:41:32;;;;;;;78.47;32.70;;;;;;;2.09;84.26;100093.41;1631649;85;25887;-78
2020/12/11 06:44:14;;;;;;;80.40;33.15;;;;;;;2.05;84.31;100091.52;1651959;84;25811;-77
2020/12/11 06:46:42;;;;;;;72.58;33.50;;;;;;;2.05;84.32;100089.39;1675891;84;26206;-78
2020/12/11 06:49:17;;;;;;;76.80;33.25;;;;;;;2.02;84.42;100087.87;1619995;84;25849;-77
2020/12/11 06:51:49;;;;;;;90.42;36.60;;;;;;;2.04;84.47;100083.27;1626091;84;27554;-77
2020/12/11 06:54:28;;;;;;;74.72;31.77;;;;;;;2.05;84.59;100086.75;1652885;84;25767;-77
2020/12/11 06:56:59;;;;;;;78.72;31.07;;;;;;;2.03;84.55;100088.70;1675757;84;25730;-78
2020/12/11 06:59:41;;;;;;;70.40;30.82;;;;;;;2.03;84.62;100093.48;1605113;84;26111;-78
2020/12/11 07:02:17;;;;;;;84.70;32.38;;;;;;;1.99;84.60;100089.47;1650647;84;25885;-78
2020/12/11 07:07:31;;;;;;;80.35;32.85;;;;;;;2.07;84.75;100085.63;1779292;78;25830;-77
2020/12/11 07:09:59;;;;;;;78.05;31.00;;;;;;;2.03;84.86;100080.78;1744141;80;26039;-77
2020/12/11 07:12:30;;;;;;;84.35;35.30;;;;;;;2.03;84.72;100082.10;1707856;80;28274;-78
2020/12/11 07:14:57;;;;;;;;;;;;;;;2.03;84.78;100082.10;1710148;81;25917;-78
2020/12/11 07:17:28;;;;;;;90.67;35.55;;;;;;;2.01;84.84;100078.78;1711508;80;25811;-78
2020/12/11 07:19:57;;;;;;;90.25;36.35;;;;;;;1.97;84.84;100079.53;1728884;80;26149;-77
2020/12/11 07:22:25;;;;;;;96.22;38.80;;;;;;;1.99;84.86;100080.22;1708538;80;25725;-78
2020/12/11 07:24:53;;;;;;;85.70;39.38;;;;;;;2.00;84.89;100072.66;1714938;80;27621;-78
2020/12/11 07:27:20;;;;;;;90.32;38.30;;;;;;;2.02;84.89;100076.46;1716058;80;26476;-78
2020/12/11 07:29:52;;;;;;;89.47;38.38;;;;;;;2.03;84.86;100078.95;1712547;81;25847;-78
2020/12/11 07:32:30;;;;;;;84.55;39.18;;;;;;;2.07;84.74;100076.39;1829617;77;25665;-78
2020/12/11 07:34:58;;;;;;;78.78;37.17;;;;;;;2.01;84.82;100082.73;1777340;78;25928;-78
2020/12/11 07:37:25;;;;;;;90.75;42.25;;;;;;;2.01;84.86;100081.42;1795805;78;28570;-78
2020/12/11 07:39:53;;;;;;;78.60;34.70;;;;;;;2.01;84.88;100084.86;1728006;78;25970;-78
2020/12/11 07:42:21;;;;;;;83.40;35.10;;;;;;;2.01;84.85;100077.45;1805413;78;25852;-78
2020/12/11 07:44:49;;;;;;;80.60;35.15;;;;;;;1.98;84.84;100075.93;1781466;78;25861;-77
2020/12/11 07:47:17;;;;;;;80.92;35.92;;;;;;;1.97;84.85;100078.21;1779282;78;25811;-78
2020/12/11 07:49:47;;;;;;;88.17;40.75;;;;;;;2.00;84.93;100083.70;1724970;78;27552;-78
2020/12/11 07:54:56;;;;;;;74.20;33.65;;;;;;;2.08;84.91;100075.39;1824692;77;25676;-77
2020/12/11 07:57:29;;;;;;;68.22;32.38;;;;;;;2.00;84.88;100078.42;1792024;79;26707;-78
2020/12/11 08:00:01;;;;;;;75.05;34.75;;;;;;;1.98;84.89;100079.89;1797272;78;27582;-78
2020/12/11 08:02:33;;;;;;;78.10;36.63;;;;;;;1.99;84.94;100080.73;1781690;78;26363;-78
2020/12/11 08:05:01;;;;;;;74.87;34.05;;;;;;;2.00;85.01;100079.73;1793198;78;26316;-77
2020/12/11 08:07:31;;;;;;;87.85;40.98;;;;;;;2.01;84.98;100075.62;1747530;79;25846;-77
2020/12/11 08:10:14;;;;;;;109.03;44.90;;;;;;;2.02;85.01;100082.58;1804145;78;25866;-77
2020/12/11 08:12:43;;;;;;;111.85;48.95;;;;;;;2.04;84.95;100085.07;1743662;79;27716;-77
2020/12/11 08:15:12;;;;;;;89.32;40.92;;;;;;;2.03;85.01;100091.34;1784996;78;26037;-77
2020/12/11 08:17:42;;;;;;;89.40;43.98;;;;;;;2.04;85.04;100093.83;1760957;79;25795;-77
2020/12/11 08:20:10;;;;;;;85.53;41.85;;;;;;;2.04;85.18;100092.52;1794507;78;25827;-77
2020/12/11 08:22:45;;;;;;;98.75;49.48;;;;;;;2.05;84.99;100097.31;1750477;78;26217;-77
2020/12/11 08:25:24;;;;;;;127.07;61.10;;;;;;;2.05;85.06;100095.48;1777875;78;27530;-78
2020/12/11 08:27:51;;;;;;;87.47;41.77;;;;;;;2.05;85.06;100094.16;1791762;78;26425;-78
2020/12/11 08:30:21;;;;;;;83.82;39.70;;;;;;;2.03;85.00;100086.88;1749715;78;25944;-78
2020/12/11 08:32:49;;;;;;;70.97;35.73;;;;;;;2.06;85.29;100091.87;1751092;78;25872;-77
2020/12/11 08:35:22;;;;;;;187.95;90.22;;;;;;;2.11;85.26;100092.77;1760182;78;25951;-79
2020/12/11 08:37:58;;;;;;;188.42;110.70;;;;;;;2.15;85.35;100095.45;1768593;78;27060;-78
2020/12/11 08:40:29;;;;;;;113.40;75.03;;;;;;;2.20;85.26;100092.71;1717982;81;26184;-78
2020/12/11 08:43:33;;;;;;;97.37;63.33;;;;;;;2.21;85.08;100092.23;1732301;81;25975;-78
2020/12/11 08:48:32;;;;;;;;;;;;;;;2.27;85.02;100091.16;1753751;81;25774;-78
2020/12/11 08:51:02;;;;;;;93.47;58.42;;;;;;;2.29;84.99;100085.72;1732769;81;27594;-77
2020/12/11 08:53:34;;;;;;;118.22;72.08;;;;;;;2.31;85.10;100091.20;1705127;83;26175;-78
2020/12/11 08:55:58;;;;;;;89.62;43.05;;;;;;;2.34;84.94;100094.89;1714728;81;25805;-77
2020/12/11 08:58:26;;;;;;;117.42;69.65;;;;;;;2.37;84.92;100095.57;1694056;84;26005;-78
2020/12/11 09:00:53;;;;;;;102.02;61.68;;;;;;;2.39;84.84;100096.26;1651705;84;26786;-78
2020/12/11 09:03:21;;;;;;;96.78;56.10;;;;;;;2.42;84.80;100086.73;1675695;83;27536;-78
2020/12/11 09:05:49;;;;;;;94.72;59.05;;;;;;;2.43;84.71;100081.77;1655287;84;25897;-78
2020/12/11 09:08:16;;;;;;;78.78;42.90;;;;;;;2.42;84.61;100086.21;1670191;83;25893;-78
2020/12/11 09:10:44;;;;;;;142.77;111.12;;;;;;;2.44;84.64;100076.84;1697797;83;26486;-77
2020/12/11 09:13:11;;;;;;;90.22;54.95;;;;;;;2.45;84.56;100069.23;1671573;82;26096;-78
2020/12/11 09:15:38;;;;;;;159.67;113.72;;;;;;;2.44;84.51;100076.84;1712037;83;28974;-78
2020/12/11 09:18:06;;;;;;;94.35;50.45;;;;;;;2.42;84.49;100073.52;1674514;83;25455;-77
2020/12/11 09:20:33;;;;;;;92.85;44.60;;;;;;;2.45;84.55;100069.23;1703389;82;25884;-77
2020/12/11 09:23:00;;;;;;;136.10;83.65;;;;;;;2.48;84.66;100061.02;1671740;82;25835;-77
2020/12/11 09:25:28;;;;;;;140.80;91.67;;;;;;;2.53;84.64;100058.74;1707358;82;26458;-77
2020/12/11 09:27:55;;;;;;;126.12;73.35;;;;;;;2.57;84.66;100062.27;1687579;83;27323;-77
2020/12/11 09:30:35;;;;;;;149.70;100.18;;;;;;;2.60;84.63;100059.34;1675234;82;26396;-78
2020/12/11 09:35:31;;;;;;;81.35;42.70;;;;;;;2.62;84.29;100050.77;1691642;82;25798;-77
2020/12/11 09:37:58;;;;;;;74.17;36.28;;;;;;;2.62;84.30;100041.99;1681958;83;25769;-77
2020/12/11 09:40:43;;;;;;;79.37;38.98;;;;;;;2.58;84.24;100047.24;1694641;82;27557;-77
2020/12/11 09:43:41;;;;;;;100.10;51.55;;;;;;;2.58;84.22;100047.24;1707931;81;28046;-81
2020/12/11 09:45:50;;;;;;;96.60;48.55;;;;;;;2.60;84.40;100040.83;1688300;83;25773;-76
2020/12/11 09:48:23;;;;;;;111.00;57.03;;;;;;;2.62;84.33;100044.16;1669883;84;25903;-77
2020/12/11 09:56:03;;;;;;;88.03;41.20;;;;;;;2.75;84.28;100042.46;1819390;77;25816;-76
2020/12/11 09:58:27;;;;;;;82.85;40.48;;;;;;;2.68;84.03;100039.58;1728009;80;25905;-76
2020/12/11 10:00:55;;;;;;;95.10;42.35;;;;;;;2.67;84.03;100040.58;1760683;80;27599;-76
2020/12/11 10:03:29;;;;;;;95.87;45.80;;;;;;;2.70;84.08;100040.75;1721018;80;26600;-76
2020/12/11 10:05:52;;;;;;;112.10;62.88;;;;;;;2.71;84.09;100039.78;1731444;80;25796;-76
2020/12/11 10:08:20;;;;;;;115.88;61.28;;;;;;;2.72;84.05;100036.98;1744654;80;25931;-76
2020/12/11 10:10:47;;;;;;;111.83;52.67;;;;;;;2.73;84.04;100034.69;1751892;80;26329;-76
2020/12/11 10:13:15;;;;;;;99.03;45.48;;;;;;;2.78;84.12;100026.30;1717363;81;27545;-76
2020/12/11 10:15:42;;;;;;;104.35;47.62;;;;;;;2.80;83.96;100032.27;1724257;80;25792;-78
2020/12/11 10:18:09;;;;;;;97.02;44.65;;;;;;;2.80;83.96;100033.08;1742451;80;26006;-77
2020/12/11 10:20:37;;;;;;;106.87;46.13;;;;;;;2.82;83.98;100022.38;1748005;80;26220;-78
2020/12/11 10:23:04;;;;;;;103.20;46.23;;;;;;;2.85;83.92;100023.37;1693225;80;26509;-76
2020/12/11 10:25:31;;;;;;;102.35;44.15;;;;;;;2.86;83.87;100028.53;1728189;80;27537;-77
2020/12/11 10:27:59;;;;;;;99.42;46.73;;;;;;;2.87;83.90;100034.63;1728899;80;25882;-77
2020/12/11 10:30:26;;;;;;;94.42;44.03;;;;;;;2.88;83.76;100031.02;1730855;80;26156;-77
2020/12/11 10:32:55;;;;;;;81.12;38.50;;;;;;;2.89;83.83;100024.73;1719298;80;25842;-77
2020/12/11 10:35:23;;;;;;;82.92;39.18;;;;;;;2.91;83.75;100022.28;1748440;80;26547;-77
2020/12/11 10:37:50;;;;;;;78.90;34.83;;;;;;;2.90;83.68;100014.02;1696995;80;28495;-77
2020/12/11 10:40:18;;;;;;;79.20;35.15;;;;;;;2.91;83.57;100012.18;1744875;80;25953;-77
2020/12/11 10:42:45;;;;;;;90.67;42.03;;;;;;;2.88;83.55;100012.02;1678490;80;25886;-77
2020/12/11 10:45:12;;;;;;;90.10;42.53;;;;;;;2.92;83.77;100012.53;1709270;80;25789;-77
2020/12/11 10:47:40;;;;;;;85.95;40.12;;;;;;;2.91;83.58;100010.86;1728321;81;25779;-76
2020/12/11 10:50:07;;;;;;;92.97;41.70;;;;;;;2.91;83.54;100002.44;1738301;80;28392;-76
2020/12/11 10:52:34;;;;;;;98.52;41.85;;;;;;;2.92;83.54;100001.95;1711223;80;25854;-77
2020/12/11 10:55:02;;;;;;;88.25;40.65;;;;;;;2.93;83.56;99990.41;1725808;81;25559;-77
2020/12/11 10:57:29;;;;;;;90.53;45.35;;;;;;;2.93;83.54;99994.37;1713068;80;25825;-77
2020/12/11 10:59:58;;;;;;;94.90;43.08;;;;;;;2.96;83.61;100001.50;1758472;80;26564;-77
2020/12/11 11:02:25;;;;;;;98.05;45.20;;;;;;;2.98;83.46;100000.02;1716584;81;27622;-77
2020/12/11 11:04:53;;;;;;;107.60;46.83;;;;;;;2.96;83.46;100007.28;1733258;81;26561;-78
2020/12/11 11:07:25;;;;;;;95.53;43.13;;;;;;;2.92;83.41;100001.47;1751121;80;26054;-79
2020/12/11 11:10:13;;;;;;;;;;;;;;;;;;;;;
2020/12/11 11:12:30;;;;;;;96.57;39.73;;;;;;;3.00;83.53;99992.27;1835018;77;25897;-76
2020/12/11 11:15:24;;;;;;;82.08;38.80;;;;;;;2.95;83.53;99983.14;1798232;78;25708;-77
2020/12/11 11:20:19;;;;;;;88.27;38.55;;;;;;;2.95;83.57;99981.30;1738467;78;26071;-76
2020/12/11 11:27:43;;;;;;;105.25;53.10;;;;;;;2.96;83.45;99975.53;1795528;78;25794;-77
2020/12/11 11:30:08;;;;;;;83.90;43.55;;;;;;;2.97;83.48;99971.91;1753697;79;27954;-77
2020/12/11 11:32:36;;;;;;;75.03;37.83;;;;;;;2.95;83.41;99977.86;1770074;79;25795;-77
2020/12/11 11:35:05;;;;;;;76.53;36.48;;;;;;;2.92;83.36;99985.59;1772282;79;26413;-77
2020/12/11 11:37:32;;;;;;;77.50;37.85;;;;;;;2.93;83.47;99986.44;1780692;78;26133;-76
2020/12/11 11:39:59;;;;;;;83.75;42.48;;;;;;;2.94;83.48;99982.30;1740723;78;25865;-76
2020/12/11 11:42:27;;;;;;;95.65;45.38;;;;;;;2.96;83.49;99982.14;1741142;78;27523;-76
2020/12/11 11:47:40;;;;;;;91.30;41.33;;;;;;;2.98;83.39;99980.17;1777561;79;25751;-76
2020/12/11 11:55:20;;;;;;;106.78;56.28;;;;;;;2.91;83.42;99985.24;1795322;77;25849;-76
2020/12/11 11:57:47;;;;;;;88.52;41.77;;;;;;;2.84;83.42;99986.86;1732264;80;25993;-77
2020/12/11 12:00:15;;;;;;;87.65;39.48;;;;;;;2.82;83.50;99983.51;1705000;82;27587;-76
2020/12/11 12:02:42;;;;;;;97.30;42.65;;;;;;;2.80;83.55;99984.67;1676390;82;25815;-76
2020/12/11 12:05:10;;;;;;;94.40;40.33;;;;;;;2.81;83.65;99981.86;1672288;83;25826;-77